createdAt,value
2019-03-22T04:59:21.026Z,0.00
2019-03-22T05:00:20.963Z,0.00
2019-03-22T05:01:21.011Z,0.00
2019-03-22T05:02:20.963Z,0.00
2019-03-22T05:03:20.931Z,0.00
2019-03-22T05:04:20.926Z,0.00
2019-03-22T05:05:20.933Z,0.00
2019-03-22T05:06:20.925Z,0.00
2019-03-22T05:07:20.910Z,4.00
2019-03-22T05:08:20.879Z,4.00
2019-03-22T05:09:20.872Z,0.00
2019-03-22T05:10:20.872Z,4.00
2019-03-22T05:11:20.849Z,0.00
2019-03-22T05:12:20.858Z,4.00
2019-03-22T05:13:20.836Z,4.00
2019-03-22T05:14:20.824Z,8.00
2019-03-22T05:15:20.807Z,8.00
2019-03-22T05:16:20.807Z,8.00
2019-03-22T05:17:20.810Z,8.00
2019-03-22T05:18:20.785Z,12.00
2019-03-22T05:19:20.768Z,12.00
2019-03-22T05:20:20.755Z,16.00
2019-03-22T05:21:20.760Z,16.00
2019-03-22T05:22:20.762Z,20.00
2019-03-22T05:23:20.727Z,20.00
2019-03-22T05:24:20.724Z,28.00
2019-03-22T05:25:20.705Z,28.00
2019-03-22T05:26:20.696Z,32.00
2019-03-22T05:27:20.707Z,32.00
2019-03-22T05:28:20.679Z,40.00
2019-03-22T05:29:30.145Z,44.00
2019-03-22T05:30:21.669Z,48.00
2019-03-22T05:31:20.651Z,56.00
2019-03-22T05:32:20.659Z,56.00
2019-03-22T05:33:20.624Z,60.00
2019-03-22T05:34:20.614Z,68.00
2019-03-22T05:35:20.604Z,76.00
2019-03-22T05:36:20.605Z,84.00
2019-03-22T05:37:20.603Z,92.00
2019-03-22T05:38:20.570Z,96.00
2019-03-22T05:39:20.561Z,104.00
2019-03-22T05:40:20.555Z,112.00
2019-03-22T05:41:20.547Z,120.00
2019-03-22T05:42:20.567Z,132.00
2019-03-22T05:43:20.518Z,140.00
2019-03-22T05:44:20.523Z,152.00
2019-03-22T05:45:20.499Z,160.00
2019-03-22T05:46:27.577Z,172.00
2019-03-22T05:47:20.498Z,180.00
2019-03-22T05:48:20.466Z,188.00
2019-03-22T05:49:20.455Z,200.00
2019-03-22T05:50:20.445Z,208.00
2019-03-22T05:51:20.436Z,220.00
2019-03-22T05:52:20.453Z,232.00
2019-03-22T05:53:20.413Z,244.00
2019-03-22T05:54:20.411Z,252.00
2019-03-22T05:55:20.412Z,264.00
2019-03-22T05:56:20.389Z,276.00
2019-03-22T05:57:20.396Z,288.00
2019-03-22T05:58:20.363Z,300.00
2019-03-22T05:59:20.351Z,316.00
2019-03-22T06:00:20.360Z,328.00
2019-03-22T06:01:20.332Z,340.00
2019-03-22T06:02:20.340Z,352.00
2019-03-22T06:03:20.313Z,368.00
2019-03-22T06:04:20.301Z,384.00
2019-03-22T06:05:20.290Z,400.00
2019-03-22T06:06:20.289Z,412.00
2019-03-22T06:07:20.303Z,424.00
2019-03-22T06:08:20.267Z,440.00
2019-03-22T06:09:20.250Z,456.00
2019-03-22T06:10:20.240Z,468.00
2019-03-22T06:11:20.232Z,480.00
2019-03-22T06:12:20.266Z,496.00
2019-03-22T06:13:20.211Z,516.00
2019-03-22T06:14:20.204Z,532.00
2019-03-22T06:15:20.196Z,552.00
2019-03-22T06:16:20.182Z,568.00
2019-03-22T06:17:20.175Z,596.00
2019-03-22T06:18:20.178Z,620.00
2019-03-22T06:19:20.157Z,648.00
2019-03-22T06:20:20.152Z,680.00
2019-03-22T06:21:20.127Z,712.00
2019-03-22T06:22:20.121Z,744.00
2019-03-22T06:23:20.137Z,768.00
2019-03-22T06:24:22.222Z,776.00
2019-03-22T06:25:20.091Z,836.00
2019-03-22T06:26:20.084Z,876.00
2019-03-22T06:27:20.129Z,880.00
2019-03-22T06:28:20.073Z,932.00
2019-03-22T06:29:20.046Z,968.00
2019-03-22T06:30:20.050Z,1016.00
2019-03-22T06:31:20.837Z,1056.00
2019-03-22T06:32:20.019Z,1040.00
2019-03-22T06:33:20.036Z,1044.00
2019-03-22T06:34:20.003Z,1064.00
2019-03-22T06:35:20.023Z,1104.00
2019-03-22T06:36:19.974Z,1144.00
2019-03-22T06:37:19.965Z,1188.00
2019-03-22T06:38:19.980Z,1232.00
2019-03-22T06:39:19.944Z,1264.00
2019-03-22T06:40:19.934Z,1300.00
2019-03-22T06:41:19.923Z,1356.00
2019-03-22T06:42:19.920Z,1412.00
2019-03-22T06:43:19.927Z,1480.00
2019-03-22T06:44:19.908Z,1548.00
2019-03-22T06:45:19.886Z,1600.00
2019-03-22T06:46:19.875Z,1588.00
2019-03-22T06:47:19.869Z,1592.00
2019-03-22T06:48:19.888Z,1592.00
2019-03-22T06:49:19.846Z,1628.00
2019-03-22T06:50:19.837Z,1680.00
2019-03-22T06:51:19.828Z,1740.00
2019-03-22T06:52:19.814Z,1772.00
2019-03-22T06:53:19.836Z,1800.00
2019-03-22T06:54:31.161Z,1856.00
2019-03-22T06:55:20.788Z,1876.00
2019-03-22T06:56:19.809Z,1904.00
2019-03-22T06:57:19.768Z,1924.00
2019-03-22T06:58:19.815Z,1932.00
2019-03-22T06:59:19.756Z,1944.00
2019-03-22T07:00:19.731Z,2012.00
2019-03-22T07:01:19.726Z,2060.00
2019-03-22T07:02:19.722Z,2052.00
2019-03-22T07:03:19.727Z,2108.00
2019-03-22T07:04:19.690Z,2152.00
2019-03-22T07:05:19.679Z,2204.00
2019-03-22T07:06:19.676Z,2224.00
2019-03-22T07:07:19.660Z,2236.00
2019-03-22T07:08:19.667Z,2324.00
2019-03-22T07:09:19.639Z,2276.00
2019-03-22T07:10:19.627Z,2228.00
2019-03-22T07:11:19.630Z,2240.00
2019-03-22T07:12:19.611Z,2232.00
2019-03-22T07:13:19.615Z,2164.00
2019-03-22T07:14:19.590Z,2176.00
2019-03-22T07:15:19.574Z,2192.00
2019-03-22T07:16:19.580Z,2216.00
2019-03-22T07:17:19.557Z,2220.00
2019-03-22T07:18:19.562Z,2216.00
2019-03-22T07:19:19.530Z,2256.00
2019-03-22T07:20:19.521Z,2372.00
2019-03-22T07:21:19.521Z,2420.00
2019-03-22T07:22:19.513Z,2520.00
2019-03-22T07:23:19.514Z,2544.00
2019-03-22T07:24:19.479Z,2728.00
2019-03-22T07:25:19.467Z,2676.00
2019-03-22T07:26:19.471Z,2764.00
2019-03-22T07:27:19.455Z,2788.00
2019-03-22T07:28:19.464Z,3104.00
2019-03-22T07:29:19.427Z,2892.00
2019-03-22T07:30:19.474Z,2996.00
2019-03-22T07:31:19.402Z,2884.00
2019-03-22T07:32:19.392Z,2968.00
2019-03-22T07:33:19.399Z,3236.00
2019-03-22T07:34:19.377Z,3404.00
2019-03-22T07:35:19.362Z,3040.00
2019-03-22T07:36:19.347Z,2876.00
2019-03-22T07:37:19.341Z,3024.00
2019-03-22T07:38:19.377Z,2864.00
2019-03-22T07:39:19.324Z,3048.00
2019-03-22T07:40:19.310Z,3200.00
2019-03-22T07:41:19.295Z,3368.00
2019-03-22T07:42:19.284Z,3276.00
2019-03-22T07:43:19.297Z,3028.00
2019-03-22T07:44:19.264Z,3100.00
2019-03-22T07:45:19.257Z,3240.00
2019-03-22T07:46:19.239Z,3204.00
2019-03-22T07:47:19.246Z,3072.00
2019-03-22T07:48:19.240Z,3044.00
2019-03-22T07:49:19.212Z,3152.00
2019-03-22T07:50:19.199Z,3268.00
2019-03-22T07:51:19.190Z,3272.00
2019-03-22T07:52:19.176Z,3144.00
2019-03-22T07:53:19.188Z,3280.00
2019-03-22T07:54:19.163Z,3220.00
2019-03-22T07:55:19.149Z,3276.00
2019-03-22T07:56:19.136Z,3376.00
2019-03-22T07:57:19.122Z,3276.00
2019-03-22T07:58:19.402Z,3196.00
2019-03-22T07:59:19.099Z,3612.00
2019-03-22T08:00:30.162Z,3496.00
2019-03-22T08:01:20.076Z,3724.00
2019-03-22T08:02:19.086Z,3752.00
2019-03-22T08:03:19.054Z,3928.00
2019-03-22T08:04:19.070Z,4000.00
2019-03-22T08:05:19.035Z,4028.00
2019-03-22T08:06:19.038Z,4084.00
2019-03-22T08:07:19.013Z,4108.00
2019-03-22T08:08:19.004Z,4140.00
2019-03-22T08:09:19.037Z,4132.00
2019-03-22T08:10:19.000Z,4172.00
2019-03-22T08:11:18.969Z,4192.00
2019-03-22T08:12:19.573Z,4220.00
2019-03-22T08:13:18.948Z,4276.00
2019-03-22T08:14:18.954Z,4260.00
2019-03-22T08:15:18.924Z,4052.00
2019-03-22T08:16:18.914Z,4476.00
2019-03-22T08:17:18.901Z,4468.00
2019-03-22T08:18:18.920Z,4400.00
2019-03-22T08:19:18.901Z,4304.00
2019-03-22T08:20:18.902Z,4188.00
2019-03-22T08:21:18.859Z,4316.00
2019-03-22T08:22:18.846Z,4300.00
2019-03-22T08:23:18.878Z,4168.00
2019-03-22T08:24:18.859Z,4480.00
2019-03-22T08:25:18.824Z,4472.00
2019-03-22T08:26:18.815Z,4152.00
2019-03-22T08:27:18.803Z,4660.00
2019-03-22T08:28:18.778Z,4728.00
2019-03-22T08:29:18.814Z,4888.00
2019-03-22T08:30:18.785Z,5156.00
2019-03-22T08:31:18.768Z,5148.00
2019-03-22T08:32:18.828Z,5148.00
2019-03-22T08:33:18.747Z,5056.00
2019-03-22T08:34:18.746Z,5188.00
2019-03-22T08:35:18.722Z,5212.00
2019-03-22T08:36:18.701Z,5276.00
2019-03-22T08:37:18.711Z,5208.00
2019-03-22T08:38:18.675Z,5380.00
2019-03-22T08:39:18.714Z,5564.00
2019-03-22T08:40:18.664Z,5700.00
2019-03-22T08:41:18.650Z,5852.00
2019-03-22T08:42:18.622Z,5800.00
2019-03-22T08:43:18.616Z,6020.00
2019-03-22T08:44:18.664Z,6608.00
2019-03-22T08:45:18.594Z,6868.00
2019-03-22T08:46:18.581Z,7388.00
2019-03-22T08:47:18.617Z,8012.00
2019-03-22T08:48:18.608Z,9284.00
2019-03-22T08:49:18.622Z,15776.00
2019-03-22T08:50:18.546Z,19872.00
2019-03-22T08:51:18.523Z,20768.00
2019-03-22T08:52:18.548Z,18496.00
2019-03-22T08:53:18.554Z,20672.00
2019-03-22T08:54:18.522Z,25120.00
2019-03-22T08:55:18.523Z,25600.00
2019-03-22T08:56:18.479Z,26592.00
2019-03-22T08:57:18.461Z,28160.00
2019-03-22T08:58:18.942Z,25088.00
2019-03-22T08:59:18.459Z,25152.00
2019-03-22T09:00:18.479Z,27488.00
2019-03-22T09:01:18.473Z,27840.00
2019-03-22T09:02:18.440Z,26784.00
2019-03-22T09:03:18.444Z,29696.00
2019-03-22T09:04:18.411Z,32800.00
2019-03-22T09:05:18.390Z,31456.00
2019-03-22T09:06:18.367Z,31232.00
2019-03-22T09:07:18.416Z,29312.00
2019-03-22T09:08:18.387Z,30048.00
2019-03-22T09:09:18.357Z,30464.00
2019-03-22T09:10:18.361Z,17696.00
2019-03-22T09:11:18.363Z,23328.00
2019-03-22T09:12:18.357Z,31616.00
2019-03-22T09:13:18.324Z,33632.00
2019-03-22T09:14:18.348Z,34560.00
2019-03-22T09:15:18.267Z,33952.00
2019-03-22T09:16:18.271Z,33376.00
2019-03-22T09:17:18.246Z,30976.00
2019-03-22T09:18:18.258Z,30976.00
2019-03-22T09:19:18.243Z,31072.00
2019-03-22T09:20:18.233Z,32736.00
2019-03-22T09:21:18.217Z,31136.00
2019-03-22T09:22:18.195Z,34848.00
2019-03-22T09:23:18.185Z,31776.00
2019-03-22T09:24:19.144Z,32064.00
2019-03-22T09:25:18.163Z,27712.00
2019-03-22T09:26:19.978Z,20576.00
2019-03-22T09:27:18.166Z,29184.00
2019-03-22T09:28:18.149Z,27424.00
2019-03-22T09:29:18.196Z,29216.00
2019-03-22T09:30:18.109Z,26880.00
2019-03-22T09:31:18.108Z,24480.00
2019-03-22T09:32:18.131Z,27456.00
2019-03-22T09:33:18.130Z,25856.00
2019-03-22T09:34:18.128Z,26112.00
2019-03-22T09:35:18.101Z,27936.00
2019-03-22T09:36:18.051Z,29728.00
2019-03-22T09:37:18.058Z,25600.00
2019-03-22T09:38:18.026Z,25312.00
2019-03-22T09:39:18.064Z,27328.00
2019-03-22T09:40:18.012Z,32000.00
2019-03-22T09:41:18.003Z,28800.00
2019-03-22T09:42:17.981Z,26048.00
2019-03-22T09:43:17.978Z,33888.00
2019-03-22T09:44:17.982Z,28768.00
2019-03-22T09:45:17.972Z,29600.00
2019-03-22T09:46:17.954Z,31584.00
2019-03-22T09:47:17.983Z,38016.00
2019-03-22T09:48:17.959Z,41568.00
2019-03-22T09:49:17.947Z,35584.00
2019-03-22T09:50:17.904Z,37312.00
2019-03-22T09:51:17.909Z,30592.00
2019-03-22T09:52:17.911Z,23904.00
2019-03-22T09:53:17.868Z,30080.00
2019-03-22T09:54:17.929Z,36448.00
2019-03-22T09:55:17.847Z,37408.00
2019-03-22T09:56:17.889Z,31424.00
2019-03-22T09:57:17.840Z,30144.00
2019-03-22T09:58:17.816Z,28192.00
2019-03-22T09:59:17.804Z,34688.00
2019-03-22T10:00:17.818Z,38592.00
2019-03-22T10:01:23.544Z,38880.00
2019-03-22T10:02:18.817Z,39264.00
2019-03-22T10:03:17.779Z,31584.00
2019-03-22T10:04:17.753Z,30944.00
2019-03-22T10:05:17.785Z,28544.00
2019-03-22T10:06:17.733Z,30656.00
2019-03-22T10:07:17.737Z,34400.00
2019-03-22T10:08:17.809Z,36960.00
2019-03-22T10:09:17.750Z,39360.00
2019-03-22T10:10:17.711Z,42112.00
2019-03-22T10:11:17.680Z,43552.00
2019-03-22T10:12:17.678Z,43968.00
2019-03-22T10:13:17.688Z,43776.00
2019-03-22T10:14:17.672Z,38944.00
2019-03-22T10:15:17.722Z,37664.00
2019-03-22T10:16:17.642Z,36832.00
2019-03-22T10:17:17.625Z,45376.00
2019-03-22T10:18:17.609Z,46656.00
2019-03-22T10:19:17.638Z,40800.00
2019-03-22T10:20:17.612Z,36928.00
2019-03-22T10:21:22.678Z,37024.00
2019-03-22T10:22:18.568Z,44896.00
2019-03-22T10:23:17.559Z,49024.00
2019-03-22T10:24:17.555Z,49088.00
2019-03-22T10:25:17.564Z,32096.00
2019-03-22T10:26:17.557Z,20032.00
2019-03-22T10:27:17.544Z,17536.00
2019-03-22T10:28:17.512Z,16608.00
2019-03-22T10:29:17.497Z,16480.00
2019-03-22T10:30:17.547Z,15456.00
2019-03-22T10:31:17.511Z,15680.00
2019-03-22T10:32:17.497Z,15104.00
2019-03-22T10:33:22.459Z,14496.00
2019-03-22T10:34:18.446Z,14176.00
2019-03-22T10:35:25.961Z,14880.00
2019-03-22T10:36:18.428Z,15328.00
2019-03-22T10:37:17.522Z,15552.00
2019-03-22T10:38:30.668Z,15360.00
2019-03-22T10:39:18.439Z,15808.00
2019-03-22T10:40:17.409Z,15936.00
2019-03-22T10:41:17.383Z,16160.00
2019-03-22T10:42:17.408Z,16352.00
2019-03-22T10:43:17.363Z,16512.00
2019-03-22T10:44:17.362Z,15968.00
2019-03-22T10:45:17.388Z,16192.00
2019-03-22T10:46:17.363Z,16928.00
2019-03-22T10:47:18.149Z,17344.00
2019-03-22T10:48:17.307Z,18176.00
2019-03-22T10:49:17.321Z,24032.00
2019-03-22T10:50:17.311Z,40160.00
2019-03-22T10:51:17.293Z,52128.00
2019-03-22T10:52:17.270Z,54208.00
2019-03-22T10:53:17.262Z,55680.00
2019-03-22T10:54:17.283Z,58848.00
2019-03-22T10:55:29.223Z,57696.00
2019-03-22T10:56:18.234Z,58048.00
2019-03-22T10:57:17.233Z,57440.00
2019-03-22T10:58:21.238Z,53856.00
2019-03-22T10:59:17.214Z,49056.00
2019-03-22T11:00:17.233Z,49440.00
2019-03-22T11:01:17.183Z,49888.00
2019-03-22T11:02:17.172Z,51200.00
2019-03-22T11:03:17.185Z,53792.00
2019-03-22T11:04:17.161Z,55776.00
2019-03-22T11:05:17.165Z,56896.00
2019-03-22T11:06:25.833Z,57920.00
2019-03-22T11:07:18.126Z,58208.00
2019-03-22T11:08:17.116Z,60320.00
2019-03-22T11:09:17.244Z,61088.00
2019-03-22T11:10:17.119Z,57344.00
2019-03-22T11:11:17.088Z,56544.00
2019-03-22T11:12:17.079Z,53280.00
2019-03-22T11:13:17.067Z,44832.00
2019-03-22T11:14:17.061Z,43488.00
2019-03-22T11:15:17.080Z,42080.00
2019-03-22T11:16:17.043Z,42400.00
2019-03-22T11:17:17.029Z,43424.00
2019-03-22T11:18:17.020Z,43040.00
2019-03-22T11:19:17.015Z,40736.00
2019-03-22T11:20:17.019Z,45376.00
2019-03-22T11:21:17.010Z,47552.00
2019-03-22T11:22:16.987Z,45088.00
2019-03-22T11:23:16.979Z,44096.00
2019-03-22T11:24:16.962Z,45088.00
2019-03-22T11:25:16.975Z,46752.00
2019-03-22T11:26:16.942Z,47648.00
2019-03-22T11:27:16.945Z,48960.00
2019-03-22T11:28:16.920Z,51648.00
2019-03-22T11:29:16.910Z,52608.00
2019-03-22T11:30:16.920Z,52928.00
2019-03-22T11:31:16.889Z,48128.00
2019-03-22T11:32:16.881Z,48160.00
2019-03-22T11:33:16.881Z,48320.00
2019-03-22T11:34:16.861Z,50112.00
2019-03-22T11:35:16.871Z,47360.00
2019-03-22T11:36:16.841Z,48672.00
2019-03-22T11:37:16.841Z,52128.00
2019-03-22T11:38:16.824Z,48928.00
2019-03-22T11:39:16.820Z,47360.00
2019-03-22T11:40:16.819Z,50976.00
2019-03-22T11:41:16.797Z,54688.00
2019-03-22T11:42:16.781Z,55680.00
2019-03-22T11:43:16.771Z,54976.00
2019-03-22T11:44:16.766Z,51456.00
2019-03-22T11:45:16.785Z,51936.00
2019-03-22T11:46:16.747Z,51200.00
2019-03-22T11:47:16.733Z,53312.00
2019-03-22T11:48:16.724Z,55744.00
2019-03-22T11:49:16.717Z,58272.00
2019-03-22T11:50:16.720Z,58624.00
2019-03-22T11:51:16.708Z,52960.00
2019-03-22T11:52:16.688Z,52928.00
2019-03-22T11:53:16.677Z,50752.00
2019-03-22T11:54:16.663Z,53184.00
2019-03-22T11:55:16.674Z,58400.00
2019-03-22T11:56:16.647Z,56288.00
2019-03-22T11:57:16.649Z,48224.00
2019-03-22T11:58:16.624Z,46304.00
2019-03-22T11:59:16.617Z,51296.00
2019-03-22T12:00:16.629Z,49280.00
2019-03-22T12:01:20.376Z,44576.00
2019-03-22T12:02:22.320Z,42624.00
2019-03-22T12:03:17.585Z,44224.00
2019-03-22T12:04:16.565Z,42848.00
2019-03-22T12:05:16.587Z,45696.00
2019-03-22T12:06:16.545Z,47328.00
2019-03-22T12:07:16.539Z,50752.00
2019-03-22T12:08:16.536Z,52672.00
2019-03-22T12:09:16.515Z,55744.00
2019-03-22T12:10:16.505Z,53920.00
2019-03-22T12:11:16.514Z,50304.00
2019-03-22T12:12:16.490Z,51136.00
2019-03-22T12:13:16.477Z,48832.00
2019-03-22T12:14:16.480Z,44640.00
2019-03-22T12:15:16.460Z,44896.00
2019-03-22T12:16:16.466Z,51968.00
2019-03-22T12:17:16.439Z,55040.00
2019-03-22T12:18:16.426Z,51552.00
2019-03-22T12:19:16.428Z,54272.00
2019-03-22T12:20:16.422Z,55264.00
2019-03-22T12:21:16.417Z,52160.00
2019-03-22T12:22:16.389Z,51776.00
2019-03-22T12:23:16.377Z,51264.00
2019-03-22T12:24:16.367Z,51136.00
2019-03-22T12:25:16.360Z,49280.00
2019-03-22T12:26:16.378Z,48096.00
2019-03-22T12:27:16.346Z,48768.00
2019-03-22T12:28:16.327Z,51744.00
2019-03-22T12:29:16.317Z,54752.00
2019-03-22T12:30:16.306Z,42144.00
2019-03-22T12:31:16.317Z,22016.00
2019-03-22T12:32:16.304Z,12584.00
2019-03-22T12:33:16.278Z,11292.00
2019-03-22T12:34:16.281Z,10736.00
2019-03-22T12:35:16.472Z,10404.00
2019-03-22T12:36:16.483Z,10100.00
2019-03-22T12:37:16.237Z,9756.00
2019-03-22T12:38:16.238Z,9568.00
2019-03-22T12:39:16.224Z,9312.00
2019-03-22T12:40:16.209Z,9056.00
2019-03-22T12:41:16.215Z,8884.00
2019-03-22T12:42:16.187Z,8684.00
2019-03-22T12:43:16.177Z,8420.00
2019-03-22T12:44:16.181Z,8448.00
2019-03-22T12:45:16.158Z,8348.00
2019-03-22T12:46:16.177Z,8240.00
2019-03-22T12:47:16.142Z,7988.00
2019-03-22T12:48:16.130Z,7884.00
2019-03-22T12:49:16.117Z,7740.00
2019-03-22T12:50:16.119Z,7628.00
2019-03-22T12:51:16.118Z,7508.00
2019-03-22T12:52:16.092Z,7384.00
2019-03-22T12:53:16.078Z,7200.00
2019-03-22T12:54:16.068Z,7028.00
2019-03-22T12:55:16.056Z,6860.00
2019-03-22T12:56:16.079Z,6744.00
2019-03-22T12:57:16.037Z,6656.00
2019-03-22T12:58:16.026Z,6576.00
2019-03-22T12:59:16.021Z,6528.00
2019-03-22T13:00:16.007Z,6428.00
2019-03-22T13:01:16.022Z,6324.00
2019-03-22T13:02:16.005Z,6196.00
2019-03-22T13:03:15.977Z,6072.00
2019-03-22T13:04:15.966Z,5976.00
2019-03-22T13:05:15.956Z,5920.00
2019-03-22T13:06:15.965Z,5888.00
2019-03-22T13:07:15.938Z,5816.00
2019-03-22T13:08:15.938Z,5752.00
2019-03-22T13:09:15.916Z,5672.00
2019-03-22T13:10:15.905Z,5596.00
2019-03-22T13:11:15.915Z,5524.00
2019-03-22T13:12:15.886Z,5448.00
2019-03-22T13:13:15.877Z,5364.00
2019-03-22T13:14:15.869Z,5288.00
2019-03-22T13:15:15.858Z,5216.00
2019-03-22T13:16:15.865Z,5148.00
2019-03-22T13:17:15.832Z,5112.00
2019-03-22T13:18:15.822Z,5040.00
2019-03-22T13:19:15.813Z,4908.00
2019-03-22T13:20:15.809Z,4904.00
2019-03-22T13:21:15.816Z,4904.00
2019-03-22T13:22:15.786Z,4844.00
2019-03-22T13:23:15.774Z,4792.00
2019-03-22T13:24:15.762Z,4756.00
2019-03-22T13:25:15.751Z,4712.00
2019-03-22T13:26:15.777Z,4660.00
2019-03-22T13:27:15.730Z,4584.00
2019-03-22T13:28:15.723Z,4544.00
2019-03-22T13:29:15.711Z,4332.00
2019-03-22T13:30:15.711Z,4208.00
2019-03-22T13:31:15.711Z,4072.00
2019-03-22T13:32:15.678Z,4036.00
2019-03-22T13:33:15.678Z,3964.00
2019-03-22T13:34:15.661Z,3932.00
2019-03-22T13:35:15.648Z,3868.00
2019-03-22T13:36:17.089Z,3788.00
2019-03-22T13:37:15.629Z,3396.00
2019-03-22T13:38:15.625Z,2772.00
2019-03-22T13:39:15.623Z,2120.00
2019-03-22T13:40:15.604Z,1720.00
2019-03-22T13:41:15.619Z,1492.00
2019-03-22T13:42:15.584Z,1396.00
2019-03-22T13:43:15.570Z,1348.00
2019-03-22T13:44:15.576Z,1328.00
2019-03-22T13:45:15.547Z,1316.00
2019-03-22T13:46:15.555Z,1312.00
2019-03-22T13:47:15.523Z,1308.00
2019-03-22T13:48:15.514Z,1296.00
2019-03-22T13:49:15.514Z,1280.00
2019-03-22T13:50:15.505Z,1272.00
2019-03-22T13:51:15.503Z,1264.00
2019-03-22T13:52:15.470Z,1248.00
2019-03-22T13:53:15.461Z,1236.00
2019-03-22T13:54:15.449Z,1232.00
2019-03-22T13:55:15.441Z,1220.00
2019-03-22T13:56:15.482Z,1220.00
2019-03-22T13:57:15.419Z,1216.00
2019-03-22T13:58:15.410Z,1208.00
2019-03-22T13:59:15.409Z,1200.00
2019-03-22T14:00:15.395Z,1192.00
2019-03-22T14:01:15.375Z,1188.00
2019-03-22T14:02:15.401Z,1180.00
2019-03-22T14:03:15.356Z,1172.00
2019-03-22T14:04:15.344Z,1164.00
2019-03-22T14:05:15.333Z,1160.00
2019-03-22T14:06:15.322Z,1152.00
2019-03-22T14:07:15.337Z,1144.00
2019-03-22T14:08:15.320Z,1140.00
2019-03-22T14:09:15.290Z,1136.00
2019-03-22T14:10:15.279Z,1128.00
2019-03-22T14:11:15.269Z,1116.00
2019-03-22T14:12:15.278Z,1112.00
2019-03-22T14:13:15.249Z,1112.00
2019-03-22T14:14:15.257Z,1108.00
2019-03-22T14:15:15.237Z,1100.00
2019-03-22T14:16:15.217Z,1096.00
2019-03-22T14:17:15.230Z,1092.00
2019-03-22T14:18:15.196Z,1088.00
2019-03-22T14:19:15.188Z,1088.00
2019-03-22T14:20:15.178Z,1080.00
2019-03-22T14:21:15.166Z,1072.00
2019-03-22T14:22:15.172Z,1068.00
2019-03-22T14:23:15.204Z,1064.00
2019-03-22T14:24:15.129Z,1056.00
2019-03-22T14:25:15.122Z,1052.00
2019-03-22T14:26:15.109Z,1044.00
2019-03-22T14:27:15.117Z,1036.00
2019-03-22T14:28:15.087Z,1036.00
2019-03-22T14:29:15.091Z,1032.00
2019-03-22T14:30:15.069Z,1032.00
2019-03-22T14:31:15.056Z,1024.00
2019-03-22T14:32:15.063Z,1016.00
2019-03-22T14:33:15.038Z,1008.00
2019-03-22T14:34:15.023Z,1008.00
2019-03-22T14:35:15.011Z,1000.00
2019-03-22T14:36:15.014Z,996.00
2019-03-22T14:37:15.010Z,992.00
2019-03-22T14:38:14.980Z,988.00
2019-03-22T14:39:14.973Z,984.00
2019-03-22T14:40:15.814Z,984.00
2019-03-22T14:41:14.946Z,980.00
2019-03-22T14:42:14.971Z,976.00
2019-03-22T14:43:14.926Z,972.00
2019-03-22T14:44:15.031Z,968.00
2019-03-22T14:45:15.914Z,964.00
2019-03-22T14:46:14.895Z,956.00
2019-03-22T14:47:14.902Z,952.00
2019-03-22T14:48:14.892Z,948.00
2019-03-22T14:49:14.864Z,944.00
2019-03-22T14:50:14.851Z,940.00
2019-03-22T14:51:14.838Z,936.00
2019-03-22T14:52:14.846Z,932.00
2019-03-22T14:53:14.817Z,924.00
2019-03-22T14:54:14.813Z,924.00
2019-03-22T14:55:14.797Z,916.00
2019-03-22T14:56:14.787Z,912.00
2019-03-22T14:57:14.792Z,908.00
2019-03-22T14:58:14.764Z,904.00
2019-03-22T14:59:14.753Z,896.00
2019-03-22T15:00:14.748Z,888.00
2019-03-22T15:01:14.731Z,888.00
2019-03-22T15:02:14.741Z,888.00
2019-03-22T15:03:22.402Z,888.00
2019-03-22T15:04:15.698Z,884.00
2019-03-22T15:05:14.687Z,884.00
2019-03-22T15:06:14.676Z,880.00
2019-03-22T15:07:19.471Z,876.00
2019-03-22T15:08:15.653Z,868.00
2019-03-22T15:09:14.643Z,860.00
2019-03-22T15:10:14.634Z,856.00
2019-03-22T15:11:14.621Z,848.00
2019-03-22T15:12:14.630Z,848.00
2019-03-22T15:13:14.616Z,844.00
2019-03-22T15:14:14.588Z,836.00
2019-03-22T15:15:14.582Z,836.00
2019-03-22T15:16:14.566Z,832.00
2019-03-22T15:17:14.580Z,828.00
2019-03-22T15:18:14.547Z,824.00
2019-03-22T15:19:14.547Z,820.00
2019-03-22T15:20:14.523Z,812.00
2019-03-22T15:21:14.515Z,808.00
2019-03-22T15:22:14.526Z,800.00
2019-03-22T15:23:14.490Z,800.00
2019-03-22T15:24:14.481Z,792.00
2019-03-22T15:25:14.483Z,788.00
2019-03-22T15:26:14.456Z,780.00
2019-03-22T15:27:14.469Z,776.00
2019-03-22T15:28:14.438Z,776.00
2019-03-22T15:30:14.418Z,764.00
2019-03-22T15:31:14.424Z,760.00
2019-03-22T15:32:14.416Z,760.00
2019-03-22T15:33:14.412Z,748.00
2019-03-22T15:34:14.371Z,744.00
2019-03-22T15:35:14.427Z,744.00
2019-03-22T15:36:14.357Z,740.00
2019-03-22T15:37:15.421Z,732.00
2019-03-22T15:38:14.327Z,732.00
2019-03-22T15:39:14.629Z,728.00
2019-03-22T15:40:14.304Z,720.00
2019-03-22T15:41:14.293Z,720.00
2019-03-22T15:42:14.307Z,716.00
2019-03-22T15:43:14.346Z,712.00
2019-03-22T15:44:14.360Z,704.00
2019-03-22T15:45:14.336Z,696.00
2019-03-22T15:46:14.246Z,692.00
2019-03-22T15:47:14.229Z,692.00
2019-03-22T15:48:14.236Z,688.00
2019-03-22T15:49:14.221Z,688.00
2019-03-22T15:50:14.201Z,680.00
2019-03-22T15:51:14.188Z,680.00
2019-03-22T15:52:14.174Z,676.00
2019-03-22T15:53:14.182Z,672.00
2019-03-22T15:54:14.152Z,668.00
2019-03-22T15:55:14.154Z,664.00
2019-03-22T15:56:14.129Z,660.00
2019-03-22T15:57:14.121Z,652.00
2019-03-22T15:58:14.130Z,648.00
2019-03-22T15:59:14.103Z,648.00
2019-03-22T16:00:14.107Z,644.00
2019-03-22T16:01:14.128Z,640.00
2019-03-22T16:02:14.069Z,640.00
2019-03-22T16:03:14.089Z,636.00
2019-03-22T16:04:14.043Z,636.00
2019-03-22T16:05:14.034Z,632.00
2019-03-22T16:06:14.024Z,628.00
2019-03-22T16:07:14.024Z,624.00
2019-03-22T16:08:14.023Z,620.00
2019-03-22T16:09:14.004Z,620.00
2019-03-22T16:10:13.978Z,616.00
2019-03-22T16:11:13.973Z,612.00
2019-03-22T16:12:13.957Z,608.00
2019-03-22T16:13:13.967Z,600.00
2019-03-22T16:14:13.936Z,596.00
2019-03-22T16:15:13.941Z,592.00
2019-03-22T16:16:13.913Z,588.00
2019-03-22T16:17:13.904Z,588.00
2019-03-22T16:18:13.914Z,580.00
2019-03-22T16:19:13.912Z,576.00
2019-03-22T16:20:13.871Z,576.00
2019-03-22T16:21:13.872Z,568.00
2019-03-22T16:22:13.849Z,568.00
2019-03-22T16:23:13.859Z,560.00
2019-03-22T16:24:13.828Z,556.00
2019-03-22T16:25:13.819Z,552.00
2019-03-22T16:26:13.805Z,552.00
2019-03-22T16:27:13.811Z,544.00
2019-03-22T16:28:13.803Z,544.00
2019-03-22T16:29:13.779Z,540.00
2019-03-22T16:30:13.761Z,536.00
2019-03-22T16:31:13.750Z,532.00
2019-03-22T16:32:13.743Z,520.00
2019-03-22T16:33:13.763Z,516.00
2019-03-22T16:34:13.716Z,512.00
2019-03-22T16:35:13.706Z,508.00
2019-03-22T16:36:13.700Z,500.00
2019-03-22T16:37:13.684Z,500.00
2019-03-22T16:38:13.700Z,488.00
2019-03-22T16:39:13.687Z,484.00
2019-03-22T16:40:13.657Z,480.00
2019-03-22T16:41:13.649Z,476.00
2019-03-22T16:42:13.630Z,476.00
2019-03-22T16:43:13.645Z,472.00
2019-03-22T16:44:13.612Z,472.00
2019-03-22T16:45:13.610Z,468.00
2019-03-22T16:46:14.275Z,464.00
2019-03-22T16:47:13.575Z,460.00
2019-03-22T16:48:13.583Z,456.00
2019-03-22T16:49:13.556Z,448.00
2019-03-22T16:50:13.546Z,444.00
2019-03-22T16:51:13.532Z,444.00
2019-03-22T16:52:13.579Z,440.00
2019-03-22T16:53:13.528Z,432.00
2019-03-22T16:54:13.504Z,428.00
2019-03-22T16:55:13.487Z,424.00
2019-03-22T16:56:13.477Z,420.00
2019-03-22T16:57:13.467Z,416.00
2019-03-22T16:58:13.509Z,412.00
2019-03-22T16:59:13.469Z,404.00
2019-03-22T17:00:13.435Z,404.00
2019-03-22T17:01:13.423Z,396.00
2019-03-22T17:02:13.436Z,392.00
2019-03-22T17:03:13.401Z,380.00
2019-03-22T17:04:13.408Z,376.00
2019-03-22T17:05:15.291Z,372.00
2019-03-22T17:06:13.398Z,368.00
2019-03-22T17:07:13.355Z,356.00
2019-03-22T17:08:13.357Z,348.00